Tetbury, United Kingdom
Current Conditions -  °F | °C
As of 9:58 PM on Tuesday 21 Oct 2014 (Local Time) from EGVA Reporting Station
Clear Clear  
Wind Chill:   Ceiling: Unl
Heat Index:   Visibility: 6mi
Dew Point:   Wind: 16mph
Humidity: 64%   Direction: 290°WNW
Pressure: 30.12"   Gusts: 24mph
Location:  51.64°N, 2.16°W
Report Text: EGVA 212058Z AUTO 29014G21KT 9999 CLR 09/02 A3012 RMK AO2 SLP204 P2700 67520 T00850021 52041
Loading
Personal Weather Stations






























Interactive Weather Map
Tropical Storm Tracking
New forecast layout! Learn more

10-Day Weather Forecast

Advertisements
Track Severe Weather on mobile